Palava, Texas
Current Conditions -  °F | °C
As of 1:15 PM on Monday 20 Oct 2014 (Local Time) from KSWW Reporting Station
Scattered Clouds Scattered Clouds  
Wind Chill: 75°   Ceiling: Unl
Heat Index: 75°   Visibility: 10mi
Dew Point: 57°   Wind: 3mph
Humidity: 53%   Direction: 80°E
Pressure: 30.13"   Gusts: NA
Location:  32.5104°N, 100.305°W
Report Text: KSWW 201815Z AUTO 08003KT 10SM SCT030 24/14 A3013 RMK AO2 T02380138
Loading
Personal Weather Stations






























Interactive Weather Map New forecast layout! Learn more

10-Day Weather Forecast

Advertisements
Track Severe Weather on mobile